METAR Data
IDs: Format: Raw Decoded Include TAF

Data at: 2012 UTC 25 Sep 2020

KC35 251955Z AUTO 18009KT 10SM CLR 25/15 A2981 RMK AO2 T02480153 PWINO
KC35 251935Z AUTO 18011G15KT 10SM CLR 25/16 A2981 RMK AO2 T02510160 PWINO
KC35 251915Z AUTO 19015G19KT 10SM CLR 25/16 A2982 RMK AO2 T02460155 PWINO
KC35 251855Z AUTO 18009G16KT 10SM CLR 25/16 A2983 RMK AO2 T02470156 PWINO
KC35 251835Z AUTO 18012KT 10SM CLR 24/16 A2984 RMK AO2 T02430155 PWINO
KC35 251815Z AUTO 19011G16KT 10SM CLR 24/16 A2986 RMK AO2 T02410157 PWINO
KC35 251755Z AUTO 17010G16KT 10SM CLR 24/16 A2987 RMK AO2 T02410157 10241 20137 PWINO
KC35 251735Z AUTO 18011G16KT 10SM CLR 24/16 A2988 RMK AO2 T02360155 PWINO
KC35 251715Z AUTO 18009G18KT 10SM CLR 23/15 A2988 RMK AO2 T02300152 PWINO
KC35 251655Z AUTO 18012G15KT 10SM CLR 23/15 A2989 RMK AO2 T02290152 PWINO
KC35 251635Z AUTO 19009G14KT 10SM CLR 22/15 A2990 RMK AO2 T02210152 PWINO
KC35 251615Z AUTO 20009KT 10SM CLR 21/15 A2990 RMK AO2 T02140151 PWINO
KC35 251555Z AUTO 18009G14KT 10SM CLR 21/15 A2991 RMK AO2 T02100150 PWINO
KC35 251535Z AUTO 17008KT 10SM CLR 21/16 A2992 RMK AO2 T02050158 PWINO
KC35 251515Z AUTO 18009KT 10SM CLR 20/15 A2992 RMK AO2 T01970153 PWINO
KC35 251455Z AUTO 19012G15KT 10SM CLR 19/15 A2992 RMK AO2 T01910146 PWINO
KC35 251435Z AUTO 18010KT 10SM CLR 19/15 A2992 RMK AO2 T01850148 PWINO
KC35 251415Z AUTO 18010KT 10SM CLR 18/15 A2991 RMK AO2 T01770146 PWINO
KC35 251355Z AUTO 19009KT 10SM CLR 17/15 A2991 RMK AO2 T01710146 PWINO
KC35 251335Z AUTO 18009KT 10SM CLR 17/14 A2992 RMK AO2 T01650144 PWINO
KC35 251315Z AUTO 18008KT 10SM CLR 16/14 A2992 RMK AO2 T01600143 PWINO
KC35 251255Z AUTO 18006KT 10SM CLR 16/14 A2992 RMK AO2 T01550141 PWINO
KC35 251235Z AUTO 17006KT 10SM CLR 15/14 A2992 RMK AO2 T01510141 PWINO
KC35 251215Z AUTO 18003KT 10SM CLR 14/14 A2992 RMK AO2 T01440142 PWINO
KC35 251155Z AUTO 00000KT 10SM SCT060 14/14 A2991 RMK AO2 70029 T01430140 10157 20142 PWINO
KC35 251135Z AUTO 14003KT 10SM SCT060 15/14 A2990 RMK AO2 T01500142 PWINO
KC35 251115Z AUTO 17004KT 10SM CLR 15/14 A2990 RMK AO2 T01510143 PWINO
KC35 251055Z AUTO 00000KT 10SM CLR 15/15 A2990 RMK AO2 T01500146 PWINO
KC35 251035Z AUTO 00000KT 10SM CLR 15/15 A2990 RMK AO2 T01470147 PWINO
KC35 251015Z AUTO 00000KT 10SM CLR 14/14 A2990 RMK AO2 T01440144 PWINO
KC35 250955Z AUTO 00000KT 10SM CLR 15/15 A2990 RMK AO2 T01490149 PWINO
KC35 250935Z AUTO 00000KT 10SM SCT050 SCT065 15/15 A2989 RMK AO2 T01500150 PWINO
KC35 250915Z AUTO 00000KT 10SM BKN055 BKN065 15/15 A2989 RMK AO2 T01480148 PWINO
KC35 250855Z AUTO 19004KT 10SM SCT049 15/15 A2989 RMK AO2 T01450145 PWINO
KC35 250835Z AUTO 00000KT 10SM CLR 14/14 A2989 RMK AO2 T01440144 PWINO
KC35 250815Z AUTO 00000KT 10SM CLR 14/14 A2988 RMK AO2 T01440144 PWINO
KC35 250755Z AUTO 00000KT 10SM CLR 14/14 A2988 RMK AO2 T01440144 PWINO
KC35 250735Z AUTO 00000KT 10SM SCT060 15/15 A2988 RMK AO2 T01480148 PWINO
KC35 250715Z AUTO 00000KT 10SM SCT050 SCT060 15/15 A2989 RMK AO2 T01500150 PWINO
KC35 250655Z AUTO 00000KT 10SM BKN049 BKN060 15/15 A2989 RMK AO2 T01500150 PWINO
KC35 250635Z AUTO 00000KT 1/2SM BKN002 OVC049 15/15 A2989 RMK AO2 T01500150 PWINO
KC35 250615Z AUTO 00000KT M1/4SM OVC002 16/16 A2989 RMK AO2 T01550155 PWINO
KC35 250555Z AUTO 00000KT 1/4SM OVC002 16/16 A2988 RMK AO2 T01560156 10179 20156 401960132 PWINO
KC35 250535Z AUTO 00000KT 1 1/2SM BKN002 OVC050 16/16 A2989 RMK AO2 VIS 3/4V5 T01620162 PWINO
KC35 250515Z AUTO 00000KT M1/4SM OVC002 16/16 A2988 RMK AO2 T01620162 PWINO
KC35 250455Z AUTO 00000KT 1/4SM OVC002 17/17 A2989 RMK AO2 T01650165 PWINO
KC35 250435Z AUTO 00000KT M1/4SM OVC002 17/17 A2988 RMK AO2 T01670167 PWINO
KC35 250415Z AUTO 00000KT 1 3/4SM BKN002 OVC045 17/17 A2988 RMK AO2 T01690169 PWINO
KC35 250355Z AUTO 00000KT 1/2SM OVC045 17/17 A2989 RMK AO2 T01660166 PWINO
KC35 250335Z AUTO 00000KT 3SM SCT003 BKN043 OVC050 17/17 A2989 RMK AO2 T01700170 PWINO
KC35 250315Z AUTO 00000KT 4SM SCT003 BKN043 OVC050 17/17 A2989 RMK AO2 T01700170 PWINO
KC35 250255Z AUTO 00000KT 2 1/2SM SCT003 OVC043 17/17 A2989 RMK AO2 VIS 1 3/4V4 T01690169 PWINO
KC35 250235Z AUTO 00000KT 1 3/4SM OVC046 17/17 A2988 RMK AO2 T01700170 PWINO
KC35 250215Z AUTO 00000KT 2SM SCT010 OVC046 17/17 A2988 RMK AO2 T01710171 PWINO
KC35 250155Z AUTO 00000KT 7SM SCT008 OVC044 17/17 A2988 RMK AO2 T01720172 PWINO
KC35 250135Z AUTO 00000KT 7SM SCT008 OVC044 17/17 A2988 RMK AO2 T01730173 PWINO
KC35 250115Z AUTO 00000KT 7SM OVC044 17/17 A2988 RMK AO2 T01730173 PWINO
KC35 250055Z AUTO 00000KT 5SM OVC044 18/18 A2987 RMK AO2 T01750175 PWINO
KC35 250035Z AUTO 00000KT 5SM SCT006 BKN046 OVC060 18/18 A2987 RMK AO2 T01750175 PWINO
KC35 250015Z AUTO 00000KT 5SM SCT006 BKN046 OVC060 18/18 A2986 RMK AO2 T01780177 PWINO
KC35 242355Z AUTO 00000KT 3SM SCT010 OVC043 18/18 A2986 RMK AO2 P0002 60029 T01790179 10195 20177 PWINO
KC35 242335Z AUTO 00000KT 7SM BKN012 OVC043 18/18 A2987 RMK AO2 P0002 T01800180 PWINO
KC35 242315Z AUTO 00000KT 4SM BKN015 BKN035 OVC050 18/18 A2987 RMK AO2 P0001 T01830183 PWINO
KC35 242255Z AUTO 00000KT 10SM SCT009 BKN040 OVC046 18/18 A2987 RMK AO2 T01830183 PWINO
KC35 242235Z AUTO 00000KT 7SM BKN009 OVC036 19/19 A2987 RMK AO2 T01850185 PWINO
KC35 242215Z AUTO 31003KT 10SM SCT009 BKN036 OVC045 19/19 A2987 RMK AO2 T01860186 PWINO
KC35 242155Z AUTO 00000KT 7SM BKN050 BKN070 OVC085 18/18 A2986 RMK AO2 P0006 T01840184 PWINO
KC35 242135Z AUTO 00000KT 7SM SCT050 BKN070 OVC085 18/18 A2986 RMK AO2 P0006 T01820182 PWINO
KC35 242115Z AUTO 00000KT 7SM SCT014 BKN070 OVC085 18/18 A2985 RMK AO2 P0004 T01820182 PWINO
KC35 242055Z AUTO 17003KT 5SM SCT013 BKN025 OVC085 18/18 A2986 RMK AO2 P0005 60021 T01810181 PWINO
KC35 242035Z AUTO 16004KT 2SM SCT016 BKN023 OVC055 18/18 A2986 RMK AO2 VIS 1V5 P0001 T01830183 PWINO
KC35 242015Z AUTO 20003KT 10SM SCT018 BKN049 OVC100 19/19 A2986 RMK AO2 T01860186 PWINO
KC35 241955Z AUTO 17005KT 10SM SCT049 BKN100 BKN120 19/19 A2985 RMK AO2 P0007 T01910191 PWINO
KC35 241935Z AUTO 18004KT 10SM SCT050 SCT065 BKN100 19/19 A2984 RMK AO2 P0007 T01920192 PWINO
KC35 241915Z AUTO 24003KT 5SM BKN070 OVC100 18/18 A2985 RMK AO2 P0004 T01780178 PWINO
KC35 241855Z AUTO 13006KT 5SM BKN070 OVC090 18/18 A2985 RMK AO2 P0009 T01780178 PWINO
KC35 241835Z AUTO 17006KT 5SM SCT043 BKN070 OVC090 18/18 A2988 RMK AO2 P0002 T01800180 PWINO
KC35 241815Z AUTO 20008KT 10SM SCT043 BKN080 OVC090 19/17 A2990 RMK AO2 T01860165 PWINO
KC35 241755Z AUTO 19007KT 10SM BKN080 OVC100 19/16 A2989 RMK AO2 T01880164 10196 20141 PWINO
KC35 241735Z AUTO 20007KT 10SM SCT050 BKN080 OVC100 19/16 A2990 RMK AO2 T01900163 PWINO
KC35 241715Z AUTO 16004KT 10SM SCT060 BKN080 BKN120 19/16 A2990 RMK AO2 T01880160 PWINO
KC35 241655Z AUTO 19004KT 10SM SCT030 BKN080 BKN110 19/16 A2990 RMK AO2 T01900160 PWINO
KC35 241635Z AUTO 19003KT 10SM SCT030 SCT080 SCT110 19/16 A2991 RMK AO2 T01900157 PWINO
KC35 241615Z AUTO 19003KT 10SM SCT030 BKN060 BKN070 19/16 A2990 RMK AO2 T01910157 PWINO
KC35 241555Z AUTO 19004KT 10SM SCT060 BKN070 20/16 A2990 RMK AO2 T01950158 PWINO
KC35 241535Z AUTO 19006KT 10SM SCT060 19/16 A2991 RMK AO2 T01930156 PWINO
KC35 241515Z AUTO 20003KT 10SM SCT050 BKN060 19/15 A2991 RMK AO2 T01890153 PWINO
KC35 241455Z AUTO 20005KT 10SM SCT060 18/15 A2991 RMK AO2 T01810151 PWINO
KC35 241435Z AUTO 18004KT 10SM SCT060 BKN120 17/16 A2991 RMK AO2 T01730156 PWINO
KC35 241415Z AUTO 17004KT 10SM SCT120 17/16 A2991 RMK AO2 T01740157 PWINO
KC35 241355Z AUTO 00000KT 10SM SCT055 16/15 A2990 RMK AO2 T01600152 PWINO
KC35 241335Z AUTO 00000KT 10SM SCT049 16/15 A2991 RMK AO2 T01550152 PWINO
KC35 241315Z AUTO 00000KT 10SM SCT044 BKN049 15/15 A2991 RMK AO2 T01520151 PWINO
KC35 241255Z AUTO 00000KT 10SM BKN045 BKN050 15/15 A2991 RMK AO2 T01480148 PWINO
KC35 241235Z AUTO 00000KT 10SM CLR 14/14 A2991 RMK AO2 T01430143 PWINO
KC35 241215Z AUTO 00000KT 10SM SCT046 15/15 A2991 RMK AO2 T01450145 PWINO
KC35 241155Z AUTO 00000KT 10SM SCT046 SCT090 BKN110 15/15 A2991 RMK AO2 T01450145 10163 20132 PWINO
KC35 241135Z AUTO 18003KT 10SM CLR 15/15 A2991 RMK AO2 T01450145 PWINO
KC35 241115Z AUTO 17003KT 10SM CLR 15/15 A2991 RMK AO2 T01450145 PWINO
KC35 241055Z AUTO 00000KT 10SM CLR 14/14 A2991 RMK AO2 T01430143 PWINO
KC35 241035Z AUTO 00000KT 10SM CLR 14/14 A2991 RMK AO2 T01420142 PWINO
KC35 241015Z AUTO 00000KT 10SM SCT110 15/14 A2991 RMK AO2 T01470144 PWINO
KC35 240955Z AUTO 00000KT 10SM CLR 15/15 A2990 RMK AO2 T01480145 PWINO
KC35 240935Z AUTO 00000KT 10SM CLR 15/15 A2990 RMK AO2 T01450145 PWINO
KC35 240915Z AUTO 18003KT 10SM CLR 14/14 A2990 RMK AO2 T01430143 PWINO
KC35 240855Z AUTO 00000KT 10SM CLR 14/14 A2990 RMK AO2 T01350135 PWINO
KC35 240835Z AUTO 00000KT 10SM CLR 13/13 A2991 RMK AO2 T01340134 PWINO
KC35 240815Z AUTO 00000KT 10SM CLR 14/14 A2991 RMK AO2 T01380138 PWINO